sensor_id;sensor_type;location;lat;lon;timestamp;pressure;altitude;pressure_sealevel;temperature
15701;BMP180;7950;42.744;23.174;2023-05-07T00:02:21;94607.34;;;8.53
15701;BMP180;7950;42.744;23.174;2023-05-07T00:04:51;94602.25;;;8.46
15701;BMP180;7950;42.744;23.174;2023-05-07T00:07:20;94601.47;;;8.46
15701;BMP180;7950;42.744;23.174;2023-05-07T00:09:54;94605.97;;;8.50
15701;BMP180;7950;42.744;23.174;2023-05-07T00:12:22;94605.09;;;8.45
15701;BMP180;7950;42.744;23.174;2023-05-07T00:14:51;94602.38;;;8.40
15701;BMP180;7950;42.744;23.174;2023-05-07T00:17:19;94604.75;;;8.41
15701;BMP180;7950;42.744;23.174;2023-05-07T00:19:48;94591.16;;;8.39
15701;BMP180;7950;42.744;23.174;2023-05-07T00:22:18;94603.88;;;8.24
15701;BMP180;7950;42.744;23.174;2023-05-07T00:24:46;94597.09;;;8.23
15701;BMP180;7950;42.744;23.174;2023-05-07T00:27:15;94607.97;;;8.20
15701;BMP180;7950;42.744;23.174;2023-05-07T00:29:44;94597.72;;;8.19
15701;BMP180;7950;42.744;23.174;2023-05-07T00:32:13;94601.03;;;8.14
15701;BMP180;7950;42.744;23.174;2023-05-07T00:34:42;94596.03;;;8.13
15701;BMP180;7950;42.744;23.174;2023-05-07T00:37:11;94602.31;;;8.23
15701;BMP180;7950;42.744;23.174;2023-05-07T00:39:41;94601.59;;;8.28
15701;BMP180;7950;42.744;23.174;2023-05-07T00:42:10;94598.44;;;8.26
15701;BMP180;7950;42.744;23.174;2023-05-07T00:44:38;94602.63;;;8.27
15701;BMP180;7950;42.744;23.174;2023-05-07T00:47:07;94609.00;;;8.31
15701;BMP180;7950;42.744;23.174;2023-05-07T00:49:39;94594.59;;;8.05
15701;BMP180;7950;42.744;23.174;2023-05-07T00:52:13;94605.59;;;7.96
15701;BMP180;7950;42.744;23.174;2023-05-07T00:54:44;94610.16;;;7.89
15701;BMP180;7950;42.744;23.174;2023-05-07T00:57:12;94606.97;;;7.87
15701;BMP180;7950;42.744;23.174;2023-05-07T00:59:41;94607.91;;;7.81
15701;BMP180;7950;42.744;23.174;2023-05-07T01:02:10;94613.91;;;7.81
15701;BMP180;7950;42.744;23.174;2023-05-07T01:04:39;94610.50;;;7.81
15701;BMP180;7950;42.744;23.174;2023-05-07T01:07:09;94603.47;;;7.93
15701;BMP180;7950;42.744;23.174;2023-05-07T01:09:38;94608.13;;;7.91
15701;BMP180;7950;42.744;23.174;2023-05-07T01:12:34;94600.38;;;7.96
15701;BMP180;7950;42.744;23.174;2023-05-07T01:15:05;94596.09;;;7.90
15701;BMP180;7950;42.744;23.174;2023-05-07T01:17:35;94600.28;;;7.79
15701;BMP180;7950;42.744;23.174;2023-05-07T01:20:06;94607.47;;;7.84
15701;BMP180;7950;42.744;23.174;2023-05-07T01:22:38;94610.63;;;7.86
15701;BMP180;7950;42.744;23.174;2023-05-07T01:25:08;94620.94;;;7.92
15701;BMP180;7950;42.744;23.174;2023-05-07T01:28:01;94611.31;;;7.93
15701;BMP180;7950;42.744;23.174;2023-05-07T01:30:30;94610.97;;;7.78
15701;BMP180;7950;42.744;23.174;2023-05-07T01:33:04;94615.16;;;7.79
15701;BMP180;7950;42.744;23.174;2023-05-07T01:35:41;94612.44;;;7.85
15701;BMP180;7950;42.744;23.174;2023-05-07T01:38:13;94610.94;;;7.89
15701;BMP180;7950;42.744;23.174;2023-05-07T01:40:42;94606.19;;;7.75
15701;BMP180;7950;42.744;23.174;2023-05-07T01:43:11;94614.59;;;7.77
15701;BMP180;7950;42.744;23.174;2023-05-07T01:45:40;94605.75;;;7.66
15701;BMP180;7950;42.744;23.174;2023-05-07T01:48:11;94606.53;;;7.67
15701;BMP180;7950;42.744;23.174;2023-05-07T01:50:42;94609.59;;;7.64
15701;BMP180;7950;42.744;23.174;2023-05-07T01:53:12;94607.00;;;7.52
15701;BMP180;7950;42.744;23.174;2023-05-07T01:55:44;94599.06;;;7.59
15701;BMP180;7950;42.744;23.174;2023-05-07T01:58:13;94599.81;;;7.59
15701;BMP180;7950;42.744;23.174;2023-05-07T02:00:41;94600.19;;;7.51
15701;BMP180;7950;42.744;23.174;2023-05-07T02:03:10;94593.13;;;7.52
15701;BMP180;7950;42.744;23.174;2023-05-07T02:05:39;94587.13;;;7.51
15701;BMP180;7950;42.744;23.174;2023-05-07T02:08:07;94596.88;;;7.56
15701;BMP180;7950;42.744;23.174;2023-05-07T02:10:37;94596.00;;;7.62
15701;BMP180;7950;42.744;23.174;2023-05-07T02:13:06;94583.94;;;7.49
15701;BMP180;7950;42.744;23.174;2023-05-07T02:15:35;94587.25;;;7.45
15701;BMP180;7950;42.744;23.174;2023-05-07T02:18:06;94584.03;;;7.43
15701;BMP180;7950;42.744;23.174;2023-05-07T02:20:35;94589.75;;;7.40
15701;BMP180;7950;42.744;23.174;2023-05-07T02:23:04;94591.75;;;7.38
15701;BMP180;7950;42.744;23.174;2023-05-07T02:25:32;94597.09;;;7.31
15701;BMP180;7950;42.744;23.174;2023-05-07T02:28:02;94596.31;;;7.31
15701;BMP180;7950;42.744;23.174;2023-05-07T02:30:32;94594.03;;;7.23
15701;BMP180;7950;42.744;23.174;2023-05-07T02:33:00;94588.44;;;7.19
15701;BMP180;7950;42.744;23.174;2023-05-07T02:35:29;94593.66;;;7.19
15701;BMP180;7950;42.744;23.174;2023-05-07T02:38:03;94595.94;;;7.27
15701;BMP180;7950;42.744;23.174;2023-05-07T02:40:31;94589.25;;;7.20
15701;BMP180;7950;42.744;23.174;2023-05-07T02:43:07;94592.88;;;7.19
15701;BMP180;7950;42.744;23.174;2023-05-07T02:45:35;94598.97;;;7.13
15701;BMP180;7950;42.744;23.174;2023-05-07T02:48:09;94597.50;;;7.05
15701;BMP180;7950;42.744;23.174;2023-05-07T02:50:38;94598.06;;;6.96
15701;BMP180;7950;42.744;23.174;2023-05-07T02:53:06;94592.25;;;6.94
15701;BMP180;7950;42.744;23.174;2023-05-07T02:55:35;94594.50;;;6.79
15701;BMP180;7950;42.744;23.174;2023-05-07T02:58:04;94587.44;;;6.79
15701;BMP180;7950;42.744;23.174;2023-05-07T03:00:34;94594.84;;;6.94
15701;BMP180;7950;42.744;23.174;2023-05-07T03:03:03;94599.66;;;6.97
15701;BMP180;7950;42.744;23.174;2023-05-07T03:05:31;94598.06;;;6.96
15701;BMP180;7950;42.744;23.174;2023-05-07T03:08:00;94603.38;;;6.89
15701;BMP180;7950;42.744;23.174;2023-05-07T03:10:28;94611.31;;;6.94
15701;BMP180;7950;42.744;23.174;2023-05-07T03:12:56;94608.00;;;6.87
15701;BMP180;7950;42.744;23.174;2023-05-07T03:15:25;94609.59;;;7.00
15701;BMP180;7950;42.744;23.174;2023-05-07T03:17:55;94610.31;;;7.07
15701;BMP180;7950;42.744;23.174;2023-05-07T03:20:24;94610.56;;;7.17
15701;BMP180;7950;42.744;23.174;2023-05-07T03:22:52;94619.16;;;7.06
15701;BMP180;7950;42.744;23.174;2023-05-07T03:25:21;94614.06;;;7.11
15701;BMP180;7950;42.744;23.174;2023-05-07T03:27:50;94613.28;;;7.22
15701;BMP180;7950;42.744;23.174;2023-05-07T03:30:18;94623.59;;;7.17
15701;BMP180;7950;42.744;23.174;2023-05-07T03:32:47;94620.56;;;7.20
15701;BMP180;7950;42.744;23.174;2023-05-07T03:35:17;94615.56;;;7.18
15701;BMP180;7950;42.744;23.174;2023-05-07T03:37:46;94618.88;;;7.25
15701;BMP180;7950;42.744;23.174;2023-05-07T03:40:14;94619.31;;;7.22
15701;BMP180;7950;42.744;23.174;2023-05-07T03:42:43;94624.88;;;7.37
15701;BMP180;7950;42.744;23.174;2023-05-07T03:45:12;94625.56;;;7.33
15701;BMP180;7950;42.744;23.174;2023-05-07T03:47:40;94626.59;;;7.32
15701;BMP180;7950;42.744;23.174;2023-05-07T03:50:09;94640.00;;;7.35
15701;BMP180;7950;42.744;23.174;2023-05-07T03:52:40;94628.75;;;7.35
15701;BMP180;7950;42.744;23.174;2023-05-07T03:55:09;94632.63;;;7.44
15701;BMP180;7950;42.744;23.174;2023-05-07T03:57:38;94636.84;;;7.56
15701;BMP180;7950;42.744;23.174;2023-05-07T04:00:08;94640.28;;;7.68
15701;BMP180;7950;42.744;23.174;2023-05-07T04:02:37;94636.97;;;7.73
15701;BMP180;7950;42.744;23.174;2023-05-07T04:05:55;94635.38;;;7.83
15701;BMP180;7950;42.744;23.174;2023-05-07T04:08:25;94648.22;;;7.96
15701;BMP180;7950;42.744;23.174;2023-05-07T04:10:58;94646.72;;;8.12
15701;BMP180;7950;42.744;23.174;2023-05-07T04:13:27;94648.78;;;8.33
15701;BMP180;7950;42.744;23.174;2023-05-07T04:15:56;94653.50;;;8.47
15701;BMP180;7950;42.744;23.174;2023-05-07T04:18:27;94655.06;;;8.60
15701;BMP180;7950;42.744;23.174;2023-05-07T04:20:56;94655.25;;;8.70
15701;BMP180;7950;42.744;23.174;2023-05-07T04:23:26;94663.06;;;8.81
15701;BMP180;7950;42.744;23.174;2023-05-07T04:25:54;94665.41;;;8.94
15701;BMP180;7950;42.744;23.174;2023-05-07T04:28:24;94671.19;;;9.08
15701;BMP180;7950;42.744;23.174;2023-05-07T04:30:52;94670.41;;;9.24
15701;BMP180;7950;42.744;23.174;2023-05-07T04:33:21;94674.81;;;9.35
15701;BMP180;7950;42.744;23.174;2023-05-07T04:35:50;94676.63;;;9.51
15701;BMP180;7950;42.744;23.174;2023-05-07T04:38:18;94675.63;;;9.69
15701;BMP180;7950;42.744;23.174;2023-05-07T04:40:48;94673.56;;;9.87
15701;BMP180;7950;42.744;23.174;2023-05-07T04:43:17;94671.28;;;10.07
15701;BMP180;7950;42.744;23.174;2023-05-07T04:45:45;94673.09;;;10.23
15701;BMP180;7950;42.744;23.174;2023-05-07T04:48:14;94670.66;;;10.38
15701;BMP180;7950;42.744;23.174;2023-05-07T04:50:43;94682.22;;;10.59
15701;BMP180;7950;42.744;23.174;2023-05-07T04:53:12;94674.03;;;10.77
15701;BMP180;7950;42.744;23.174;2023-05-07T04:55:40;94667.13;;;10.92
15701;BMP180;7950;42.744;23.174;2023-05-07T04:58:10;94674.69;;;11.10
15701;BMP180;7950;42.744;23.174;2023-05-07T05:00:39;94676.19;;;11.28
15701;BMP180;7950;42.744;23.174;2023-05-07T05:03:09;94678.75;;;11.49
15701;BMP180;7950;42.744;23.174;2023-05-07T05:05:38;94677.16;;;11.75
15701;BMP180;7950;42.744;23.174;2023-05-07T05:08:07;94669.22;;;11.96
15701;BMP180;7950;42.744;23.174;2023-05-07T05:10:35;94678.03;;;12.17
15701;BMP180;7950;42.744;23.174;2023-05-07T05:13:04;94679.50;;;12.39
15701;BMP180;7950;42.744;23.174;2023-05-07T05:15:34;94669.06;;;12.59
15701;BMP180;7950;42.744;23.174;2023-05-07T05:18:02;94665.97;;;12.67
15701;BMP180;7950;42.744;23.174;2023-05-07T05:20:31;94670.78;;;12.85
15701;BMP180;7950;42.744;23.174;2023-05-07T05:23:00;94666.16;;;13.07
15701;BMP180;7950;42.744;23.174;2023-05-07T05:25:28;94673.00;;;13.18
15701;BMP180;7950;42.744;23.174;2023-05-07T05:27:57;94665.69;;;13.40
15701;BMP180;7950;42.744;23.174;2023-05-07T05:30:26;94663.63;;;13.57
15701;BMP180;7950;42.744;23.174;2023-05-07T05:32:56;94667.59;;;13.70
15701;BMP180;7950;42.744;23.174;2023-05-07T05:35:24;94664.97;;;13.75
15701;BMP180;7950;42.744;23.174;2023-05-07T05:37:53;94661.53;;;13.84
15701;BMP180;7950;42.744;23.174;2023-05-07T05:40:21;94671.56;;;13.82
15701;BMP180;7950;42.744;23.174;2023-05-07T05:42:50;94676.81;;;13.82
15701;BMP180;7950;42.744;23.174;2023-05-07T05:45:18;94680.78;;;13.90
15701;BMP180;7950;42.744;23.174;2023-05-07T05:47:47;94678.41;;;13.93
15701;BMP180;7950;42.744;23.174;2023-05-07T05:50:17;94674.97;;;14.08
15701;BMP180;7950;42.744;23.174;2023-05-07T05:52:50;94678.94;;;14.05
15701;BMP180;7950;42.744;23.174;2023-05-07T05:55:19;94679.47;;;14.32
15701;BMP180;7950;42.744;23.174;2023-05-07T05:57:48;94677.88;;;14.51
15701;BMP180;7950;42.744;23.174;2023-05-07T06:00:17;94677.56;;;14.63
15701;BMP180;7950;42.744;23.174;2023-05-07T06:02:46;94672.50;;;14.76
15701;BMP180;7950;42.744;23.174;2023-05-07T06:05:14;94668.81;;;14.77
15701;BMP180;7950;42.744;23.174;2023-05-07T06:07:49;94672.50;;;14.76
15701;BMP180;7950;42.744;23.174;2023-05-07T06:10:18;94667.50;;;14.80
15701;BMP180;7950;42.744;23.174;2023-05-07T06:12:47;94675.63;;;14.93
15701;BMP180;7950;42.744;23.174;2023-05-07T06:15:34;94673.75;;;14.99
15701;BMP180;7950;42.744;23.174;2023-05-07T06:18:02;94680.78;;;15.23
15701;BMP180;7950;42.744;23.174;2023-05-07T06:20:31;94672.53;;;15.40
15701;BMP180;7950;42.744;23.174;2023-05-07T06:23:01;94667.94;;;15.55
15701;BMP180;7950;42.744;23.174;2023-05-07T06:25:29;94667.31;;;15.68
15701;BMP180;7950;42.744;23.174;2023-05-07T06:27:58;94656.56;;;15.60
15701;BMP180;7950;42.744;23.174;2023-05-07T06:30:26;94664.19;;;15.66
15701;BMP180;7950;42.744;23.174;2023-05-07T06:32:55;94653.75;;;15.80
15701;BMP180;7950;42.744;23.174;2023-05-07T06:35:23;94656.56;;;15.93
15701;BMP180;7950;42.744;23.174;2023-05-07T06:37:52;94652.03;;;15.99
15701;BMP180;7950;42.744;23.174;2023-05-07T06:40:22;94652.72;;;16.09
15701;BMP180;7950;42.744;23.174;2023-05-07T06:42:50;94638.56;;;16.24
15701;BMP180;7950;42.744;23.174;2023-05-07T06:45:34;94644.00;;;16.37
15701;BMP180;7950;42.744;23.174;2023-05-07T06:48:04;94645.44;;;16.53
15701;BMP180;7950;42.744;23.174;2023-05-07T06:50:32;94636.81;;;16.67
15701;BMP180;7950;42.744;23.174;2023-05-07T06:53:06;94648.00;;;16.64
15701;BMP180;7950;42.744;23.174;2023-05-07T06:55:36;94644.72;;;16.48
15701;BMP180;7950;42.744;23.174;2023-05-07T06:58:05;94645.50;;;16.48
15701;BMP180;7950;42.744;23.174;2023-05-07T07:00:33;94642.06;;;16.48
15701;BMP180;7950;42.744;23.174;2023-05-07T07:03:27;94632.78;;;16.74
15701;BMP180;7950;42.744;23.174;2023-05-07T07:05:56;94634.84;;;16.77
15701;BMP180;7950;42.744;23.174;2023-05-07T07:08:24;94636.34;;;16.88
15701;BMP180;7950;42.744;23.174;2023-05-07T07:10:54;94636.06;;;17.08
15701;BMP180;7950;42.744;23.174;2023-05-07T07:13:23;94626.00;;;17.29
15701;BMP180;7950;42.744;23.174;2023-05-07T07:15:52;94634.09;;;17.19
15701;BMP180;7950;42.744;23.174;2023-05-07T07:18:21;94630.44;;;17.33
15701;BMP180;7950;42.744;23.174;2023-05-07T07:20:49;94623.47;;;17.61
15701;BMP180;7950;42.744;23.174;2023-05-07T07:23:18;94627.78;;;17.89
15701;BMP180;7950;42.744;23.174;2023-05-07T07:25:46;94620.28;;;18.09
15701;BMP180;7950;42.744;23.174;2023-05-07T07:28:17;94622.28;;;18.31
15701;BMP180;7950;42.744;23.174;2023-05-07T07:30:46;94623.66;;;18.47
15701;BMP180;7950;42.744;23.174;2023-05-07T07:33:14;94624.03;;;18.40
15701;BMP180;7950;42.744;23.174;2023-05-07T07:35:43;94631.91;;;18.45
15701;BMP180;7950;42.744;23.174;2023-05-07T07:38:36;94637.25;;;18.59
15701;BMP180;7950;42.744;23.174;2023-05-07T07:41:05;94640.09;;;18.62
15701;BMP180;7950;42.744;23.174;2023-05-07T07:43:35;94633.59;;;18.68
15701;BMP180;7950;42.744;23.174;2023-05-07T07:46:04;94629.75;;;18.88
15701;BMP180;7950;42.744;23.174;2023-05-07T07:48:33;94637.25;;;19.13
15701;BMP180;7950;42.744;23.174;2023-05-07T07:51:03;94630.47;;;19.34
15701;BMP180;7950;42.744;23.174;2023-05-07T07:53:32;94632.00;;;19.48
15701;BMP180;7950;42.744;23.174;2023-05-07T07:56:00;94628.53;;;19.48
15701;BMP180;7950;42.744;23.174;2023-05-07T07:58:32;94632.03;;;19.70
15701;BMP180;7950;42.744;23.174;2023-05-07T08:01:04;94616.97;;;19.88
15701;BMP180;7950;42.744;23.174;2023-05-07T08:03:32;94626.53;;;19.89
15701;BMP180;7950;42.744;23.174;2023-05-07T08:06:01;94620.78;;;19.73
15701;BMP180;7950;42.744;23.174;2023-05-07T08:08:29;94617.69;;;19.80
15701;BMP180;7950;42.744;23.174;2023-05-07T08:10:58;94616.19;;;19.87
15701;BMP180;7950;42.744;23.174;2023-05-07T08:13:26;94601.72;;;20.02
15701;BMP180;7950;42.744;23.174;2023-05-07T08:15:55;94610.81;;;20.23
15701;BMP180;7950;42.744;23.174;2023-05-07T08:18:25;94603.19;;;20.30
15701;BMP180;7950;42.744;23.174;2023-05-07T08:20:55;94601.00;;;20.32
15701;BMP180;7950;42.744;23.174;2023-05-07T08:23:24;94595.69;;;20.40
15701;BMP180;7950;42.744;23.174;2023-05-07T08:25:53;94604.22;;;20.51
15701;BMP180;7950;42.744;23.174;2023-05-07T08:28:21;94605.19;;;20.55
15701;BMP180;7950;42.744;23.174;2023-05-07T08:30:52;94583.63;;;20.65
15701;BMP180;7950;42.744;23.174;2023-05-07T08:33:20;94589.25;;;20.72
15701;BMP180;7950;42.744;23.174;2023-05-07T08:35:50;94588.59;;;20.58
15701;BMP180;7950;42.744;23.174;2023-05-07T08:38:19;94587.97;;;20.61
15701;BMP180;7950;42.744;23.174;2023-05-07T08:40:48;94584.88;;;20.76
15701;BMP180;7950;42.744;23.174;2023-05-07T08:43:18;94588.84;;;20.87
15701;BMP180;7950;42.744;23.174;2023-05-07T08:45:52;94585.97;;;21.14
15701;BMP180;7950;42.744;23.174;2023-05-07T08:48:47;94573.75;;;21.30
15701;BMP180;7950;42.744;23.174;2023-05-07T08:51:20;94575.78;;;21.41
15701;BMP180;7950;42.744;23.174;2023-05-07T08:53:49;94574.56;;;21.56
15701;BMP180;7950;42.744;23.174;2023-05-07T08:56:18;94569.25;;;21.73
15701;BMP180;7950;42.744;23.174;2023-05-07T08:58:49;94578.19;;;21.94
15701;BMP180;7950;42.744;23.174;2023-05-07T09:01:17;94572.69;;;21.99
15701;BMP180;7950;42.744;23.174;2023-05-07T09:03:46;94565.56;;;22.11
15701;BMP180;7950;42.744;23.174;2023-05-07T09:06:17;94556.94;;;22.14
15701;BMP180;7950;42.744;23.174;2023-05-07T09:08:50;94565.84;;;22.27
15701;BMP180;7950;42.744;23.174;2023-05-07T09:11:21;94557.34;;;22.33
15701;BMP180;7950;42.744;23.174;2023-05-07T09:13:54;94548.44;;;22.21
15701;BMP180;7950;42.744;23.174;2023-05-07T09:16:24;94551.25;;;22.24
15701;BMP180;7950;42.744;23.174;2023-05-07T09:18:54;94551.06;;;22.38
15701;BMP180;7950;42.744;23.174;2023-05-07T09:21:24;94551.78;;;22.55
15701;BMP180;7950;42.744;23.174;2023-05-07T09:23:55;94547.94;;;22.73
15701;BMP180;7950;42.744;23.174;2023-05-07T09:26:25;94546.91;;;22.95
15701;BMP180;7950;42.744;23.174;2023-05-07T09:28:55;94540.34;;;22.84
15701;BMP180;7950;42.744;23.174;2023-05-07T09:31:23;94543.97;;;22.42
15701;BMP180;7950;42.744;23.174;2023-05-07T09:33:53;94546.19;;;22.31
15701;BMP180;7950;42.744;23.174;2023-05-07T09:36:24;94544.69;;;22.05
15701;BMP180;7950;42.744;23.174;2023-05-07T09:38:53;94543.13;;;22.04
15701;BMP180;7950;42.744;23.174;2023-05-07T09:41:21;94538.84;;;22.11
15701;BMP180;7950;42.744;23.174;2023-05-07T09:43:54;94525.94;;;22.22
15701;BMP180;7950;42.744;23.174;2023-05-07T09:46:30;94525.59;;;22.32
15701;BMP180;7950;42.744;23.174;2023-05-07T09:49:01;94524.00;;;22.48
15701;BMP180;7950;42.744;23.174;2023-05-07T09:52:08;94515.25;;;22.30
15701;BMP180;7950;42.744;23.174;2023-05-07T09:54:38;94517.13;;;22.30
15701;BMP180;7950;42.744;23.174;2023-05-07T09:57:09;94513.31;;;22.48
15701;BMP180;7950;42.744;23.174;2023-05-07T09:59:42;94521.13;;;22.53
15701;BMP180;7950;42.744;23.174;2023-05-07T10:02:12;94516.91;;;22.43
15701;BMP180;7950;42.744;23.174;2023-05-07T10:04:42;94518.56;;;22.65
15701;BMP180;7950;42.744;23.174;2023-05-07T10:07:22;94505.19;;;22.94
15701;BMP180;7950;42.744;23.174;2023-05-07T10:09:52;94508.66;;;23.15
15701;BMP180;7950;42.744;23.174;2023-05-07T10:12:21;94500.19;;;23.13
15701;BMP180;7950;42.744;23.174;2023-05-07T10:14:54;94502.38;;;23.20
15701;BMP180;7950;42.744;23.174;2023-05-07T10:17:23;94499.47;;;23.04
15701;BMP180;7950;42.744;23.174;2023-05-07T10:19:54;94500.66;;;23.15
15701;BMP180;7950;42.744;23.174;2023-05-07T10:22:25;94487.38;;;23.27
15701;BMP180;7950;42.744;23.174;2023-05-07T10:24:57;94480.06;;;23.36
15701;BMP180;7950;42.744;23.174;2023-05-07T10:27:28;94486.97;;;23.37
15701;BMP180;7950;42.744;23.174;2023-05-07T10:30:08;94468.28;;;23.49
15701;BMP180;7950;42.744;23.174;2023-05-07T10:32:45;94471.66;;;23.58
15701;BMP180;7950;42.744;23.174;2023-05-07T10:35:18;94472.56;;;23.62
15701;BMP180;7950;42.744;23.174;2023-05-07T10:38:17;94462.03;;;23.78
15701;BMP180;7950;42.744;23.174;2023-05-07T10:40:46;94466.03;;;23.51
15701;BMP180;7950;42.744;23.174;2023-05-07T10:43:14;94468.75;;;23.31
15701;BMP180;7950;42.744;23.174;2023-05-07T10:46:14;94463.16;;;23.24
15701;BMP180;7950;42.744;23.174;2023-05-07T10:49:11;94466.25;;;23.46
15701;BMP180;7950;42.744;23.174;2023-05-07T10:51:39;94461.41;;;23.60
15701;BMP180;7950;42.744;23.174;2023-05-07T10:54:22;94454.56;;;23.83
15701;BMP180;7950;42.744;23.174;2023-05-07T10:56:52;94457.97;;;23.92
15701;BMP180;7950;42.744;23.174;2023-05-07T10:59:45;94451.06;;;24.03
15701;BMP180;7950;42.744;23.174;2023-05-07T11:02:13;94445.50;;;24.20
15701;BMP180;7950;42.744;23.174;2023-05-07T11:04:42;94450.56;;;24.34
15701;BMP180;7950;42.744;23.174;2023-05-07T11:07:29;94454.66;;;24.31
15701;BMP180;7950;42.744;23.174;2023-05-07T11:10:03;94453.06;;;24.18
15701;BMP180;7950;42.744;23.174;2023-05-07T11:12:54;94452.06;;;23.78
15701;BMP180;7950;42.744;23.174;2023-05-07T11:15:39;94451.06;;;23.71
15701;BMP180;7950;42.744;23.174;2023-05-07T11:18:10;94446.38;;;23.35
15701;BMP180;7950;42.744;23.174;2023-05-07T11:21:06;94439.94;;;23.48
15701;BMP180;7950;42.744;23.174;2023-05-07T11:23:59;94443.69;;;23.35
15701;BMP180;7950;42.744;23.174;2023-05-07T11:26:41;94436.56;;;23.39
15701;BMP180;7950;42.744;23.174;2023-05-07T11:29:16;94439.19;;;23.27
15701;BMP180;7950;42.744;23.174;2023-05-07T11:31:52;94435.16;;;23.54
15701;BMP180;7950;42.744;23.174;2023-05-07T11:34:23;94437.75;;;23.62
15701;BMP180;7950;42.744;23.174;2023-05-07T11:36:53;94434.28;;;23.62
15701;BMP180;7950;42.744;23.174;2023-05-07T11:39:30;94434.88;;;23.67
15701;BMP180;7950;42.744;23.174;2023-05-07T11:42:05;94427.06;;;23.62
15701;BMP180;7950;42.744;23.174;2023-05-07T11:44:46;94421.28;;;23.72
15701;BMP180;7950;42.744;23.174;2023-05-07T11:47:18;94413.94;;;23.49
15701;BMP180;7950;42.744;23.174;2023-05-07T11:49:48;94422.13;;;23.64
15701;BMP180;7950;42.744;23.174;2023-05-07T11:52:18;94425.81;;;23.60
15701;BMP180;7950;42.744;23.174;2023-05-07T11:54:49;94421.00;;;23.65
15701;BMP180;7950;42.744;23.174;2023-05-07T11:57:19;94424.97;;;23.80
15701;BMP180;7950;42.744;23.174;2023-05-07T11:59:48;94411.63;;;23.92
15701;BMP180;7950;42.744;23.174;2023-05-07T12:02:45;94410.19;;;23.94
15701;BMP180;7950;42.744;23.174;2023-05-07T12:05:14;94414.09;;;23.97
15701;BMP180;7950;42.744;23.174;2023-05-07T12:07:42;94411.50;;;24.00
15701;BMP180;7950;42.744;23.174;2023-05-07T12:10:12;94404.72;;;24.15
15701;BMP180;7950;42.744;23.174;2023-05-07T12:12:47;94407.19;;;24.20
15701;BMP180;7950;42.744;23.174;2023-05-07T12:15:16;94406.28;;;24.16
15701;BMP180;7950;42.744;23.174;2023-05-07T12:17:45;94397.81;;;24.14
15701;BMP180;7950;42.744;23.174;2023-05-07T12:20:14;94400.13;;;23.91
15701;BMP180;7950;42.744;23.174;2023-05-07T12:22:43;94396.56;;;24.11
15701;BMP180;7950;42.744;23.174;2023-05-07T12:25:11;94389.88;;;24.17
15701;BMP180;7950;42.744;23.174;2023-05-07T12:27:42;94388.97;;;24.13
15701;BMP180;7950;42.744;23.174;2023-05-07T12:30:13;94388.63;;;24.03
15701;BMP180;7950;42.744;23.174;2023-05-07T12:32:45;94386.91;;;23.86
15701;BMP180;7950;42.744;23.174;2023-05-07T12:35:13;94378.31;;;23.81
15701;BMP180;7950;42.744;23.174;2023-05-07T12:37:42;94377.22;;;23.82
15701;BMP180;7950;42.744;23.174;2023-05-07T12:40:11;94377.13;;;23.90
15701;BMP180;7950;42.744;23.174;2023-05-07T12:42:40;94364.13;;;23.68
15701;BMP180;7950;42.744;23.174;2023-05-07T12:45:12;94372.31;;;23.39
15701;BMP180;7950;42.744;23.174;2023-05-07T12:47:44;94368.41;;;23.16
15701;BMP180;7950;42.744;23.174;2023-05-07T12:50:13;94362.72;;;23.17
15701;BMP180;7950;42.744;23.174;2023-05-07T12:52:43;94351.44;;;23.33
15701;BMP180;7950;42.744;23.174;2023-05-07T12:55:15;94344.19;;;23.33
15701;BMP180;7950;42.744;23.174;2023-05-07T12:57:48;94341.44;;;23.54
15701;BMP180;7950;42.744;23.174;2023-05-07T13:00:33;94338.22;;;23.48
15701;BMP180;7950;42.744;23.174;2023-05-07T13:03:02;94339.97;;;23.56
15701;BMP180;7950;42.744;23.174;2023-05-07T13:05:31;94345.72;;;23.79
15701;BMP180;7950;42.744;23.174;2023-05-07T13:08:00;94338.41;;;24.00
15701;BMP180;7950;42.744;23.174;2023-05-07T13:10:29;94338.75;;;24.10
15701;BMP180;7950;42.744;23.174;2023-05-07T13:12:57;94340.63;;;24.34
15701;BMP180;7950;42.744;23.174;2023-05-07T13:15:28;94334.41;;;24.57
15701;BMP180;7950;42.744;23.174;2023-05-07T13:17:56;94332.69;;;24.49
15701;BMP180;7950;42.744;23.174;2023-05-07T13:20:25;94327.09;;;24.30
15701;BMP180;7950;42.744;23.174;2023-05-07T13:22:54;94324.53;;;24.10
15701;BMP180;7950;42.744;23.174;2023-05-07T13:25:22;94324.44;;;24.06
15701;BMP180;7950;42.744;23.174;2023-05-07T13:27:51;94315.72;;;24.09
15701;BMP180;7950;42.744;23.174;2023-05-07T13:30:37;94320.88;;;24.14
15701;BMP180;7950;42.744;23.174;2023-05-07T13:33:06;94314.84;;;23.93
15701;BMP180;7950;42.744;23.174;2023-05-07T13:35:35;94325.50;;;23.69
15701;BMP180;7950;42.744;23.174;2023-05-07T13:38:04;94319.81;;;23.59
15701;BMP180;7950;42.744;23.174;2023-05-07T13:40:32;94323.72;;;23.73
15701;BMP180;7950;42.744;23.174;2023-05-07T13:43:01;94327.53;;;23.72
15701;BMP180;7950;42.744;23.174;2023-05-07T13:45:30;94328.97;;;23.70
15701;BMP180;7950;42.744;23.174;2023-05-07T13:48:00;94330.31;;;23.88
15701;BMP180;7950;42.744;23.174;2023-05-07T13:50:28;94319.41;;;24.05
15701;BMP180;7950;42.744;23.174;2023-05-07T13:52:57;94326.09;;;24.11
15701;BMP180;7950;42.744;23.174;2023-05-07T13:55:25;94323.09;;;24.00
15701;BMP180;7950;42.744;23.174;2023-05-07T13:57:58;94326.69;;;23.92
15701;BMP180;7950;42.744;23.174;2023-05-07T14:00:28;94326.00;;;23.95
15701;BMP180;7950;42.744;23.174;2023-05-07T14:02:58;94337.59;;;23.99
15701;BMP180;7950;42.744;23.174;2023-05-07T14:05:27;94332.16;;;23.96
15701;BMP180;7950;42.744;23.174;2023-05-07T14:07:57;94327.44;;;23.93
15701;BMP180;7950;42.744;23.174;2023-05-07T14:10:26;94332.56;;;23.86
15701;BMP180;7950;42.744;23.174;2023-05-07T14:12:55;94325.63;;;23.85
15701;BMP180;7950;42.744;23.174;2023-05-07T14:15:23;94327.09;;;23.70
15701;BMP180;7950;42.744;23.174;2023-05-07T14:17:52;94333.31;;;23.62
15701;BMP180;7950;42.744;23.174;2023-05-07T14:20:22;94324.59;;;23.53
15701;BMP180;7950;42.744;23.174;2023-05-07T14:22:50;94324.47;;;23.50
15701;BMP180;7950;42.744;23.174;2023-05-07T14:25:19;94324.59;;;23.53
15701;BMP180;7950;42.744;23.174;2023-05-07T14:27:47;94319.00;;;23.46
15701;BMP180;7950;42.744;23.174;2023-05-07T14:30:16;94318.81;;;23.63
15701;BMP180;7950;42.744;23.174;2023-05-07T14:32:45;94318.38;;;23.73
15701;BMP180;7950;42.744;23.174;2023-05-07T14:35:13;94313.91;;;23.77
15701;BMP180;7950;42.744;23.174;2023-05-07T14:37:51;94304.19;;;23.85